CST,Max TemperatureF,Mean TemperatureF,Min TemperatureF,Max Dew PointF,MeanDew PointF,Min DewpointF,Max Humidity, Mean Humidity, Min Humidity, Max Sea Level PressureIn, Mean Sea Level PressureIn, Min Sea Level PressureIn, Max VisibilityMiles, Mean VisibilityMiles, Min VisibilityMiles, Max Wind SpeedMPH, Mean Wind SpeedMPH, Max Gust SpeedMPH,PrecipitationIn, CloudCover, Events, WindDirDegrees
2012-11-1,79,56,32,42,36,29,92,59,26,30.04,29.98,29.89,10,8,2,21,5,28,0.00,0,,314
2012-11-2,68,54,39,41,37,31,85,61,37,29.98,29.93,29.84,10,9,7,22,10,25,0.00,0,,85
2012-11-3,61,45,29,33,31,27,82,58,33,30.22,30.14,29.98,10,9,5,17,8,22,0.00,0,,338
2012-11-4,64,45,26,40,33,24,100,68,36,30.25,30.15,30.04,10,8,5,15,5,18,T,2,,157
2012-11-5,51,47,43,45,41,37,92,84,76,30.14,30.07,29.99,10,7,2,22,10,29,T,8,,338
2012-11-6,63,48,33,39,32,24,86,55,23,30.11,30.06,30.00,10,9,6,31,10,38,0.00,3,,290
2012-11-7,59,44,28,31,27,24,85,58,30,30.22,30.14,30.09,10,9,6,14,6,17,0.00,0,,8
2012-11-8,73,53,33,42,36,30,89,59,29,30.11,29.98,29.87,10,10,4,22,11,26,0.00,0,,140
2012-11-9,78,64,49,58,51,41,74,61,47,29.88,29.80,29.73,10,10,9,26,14,33,0.00,0,,163
2012-11-10,76,71,66,57,55,51,68,59,49,29.77,29.71,29.67,10,10,10,33,21,41,0.00,1,,181
2012-11-11,71,48,25,59,40,19,93,73,53,30.28,29.87,29.65,10,8,2,25,12,33,1.01,7,Rain-Thunderstorm,302
2012-11-12,49,34,19,22,19,15,88,60,31,30.46,30.39,30.28,10,10,10,24,5,32,0.00,0,,276
2012-11-13,57,39,20,33,27,17,92,66,40,30.47,30.41,30.34,10,10,9,12,4,14,0.00,0,,152
2012-11-14,59,43,26,31,27,22,85,56,26,30.42,30.35,30.28,10,10,10,15,5,18,0.00,0,,138
2012-11-15,56,44,31,35,31,27,82,60,38,30.42,30.32,30.27,10,10,9,10,4,13,0.00,2,,32
2012-11-16,61,44,26,38,30,25,92,66,39,30.48,30.42,30.37,10,6,0,13,4,15,0.00,0,Fog,120
2012-11-17,63,47,31,35,31,26,89,62,34,30.40,30.33,30.27,10,9,7,22,8,26,0.00,0,,131
2012-11-18,65,50,34,36,33,28,75,55,34,30.27,30.20,30.12,10,10,10,22,11,29,T,1,,150
2012-11-19,68,53,37,47,42,33,92,66,40,30.14,30.11,30.05,10,10,8,20,8,26,T,1,Rain,199
2012-11-20,66,49,31,42,36,30,92,66,40,30.24,30.20,30.12,10,7,3,13,4,14,0.00,0,,316
2012-11-21,75,52,28,43,36,26,96,62,27,30.23,30.12,29.95,10,8,3,24,8,30,0.00,0,,157
2012-11-22,72,55,37,51,42,31,76,55,34,30.27,29.97,29.84,10,10,10,29,17,37,0.00,1,,239
2012-11-23,42,30,17,31,16,9,76,51,25,30.54,30.45,30.29,10,10,7,35,13,46,0.00,0,,320
2012-11-24,50,33,16,24,18,11,84,57,29,30.45,30.19,29.91,10,10,7,21,7,26,0.00,0,,167
2012-11-25,59,42,25,31,27,21,81,57,33,30.07,29.96,29.90,10,10,9,15,7,22,0.00,0,,48
2012-11-26,46,32,17,27,23,13,88,65,41,30.51,30.31,30.08,10,9,5,23,10,30,0.00,1,,14
2012-11-27,43,26,8,18,13,5,88,62,36,30.51,30.41,30.31,10,8,2,14,5,16,0.00,0,,198
2012-11-28,56,36,15,28,22,12,88,60,32,30.44,30.33,30.18,10,9,4,15,3,18,0.00,0,,160
2012-11-29,63,48,32,40,34,27,82,63,43,30.17,30.05,29.97,10,10,8,17,8,22,0.00,0,,169
2012-11-30,63,48,32,46,37,31,82,62,42,30.10,30.04,30.00,10,9,5,13,3,17,0.00,1,,186